Saint Ignatius, MT (59865)

4:32 AM MDT on August 05, 2015 (GMT -0600)
Saint Ignatius | | Change Station
CLOSE
Current Station
Personal Weather Station
Location: Saint Ignatius, MT
Elevation: 2818 ft
Nearby Weather Stations

Elev 2818 ft 47.32 °N, 114.14 °W | Updated 2 minutes ago

Overcast
Overcast
62.7 °F
Feels Like 62.7 °F
N
5.0
Wind Variable Wind from SSE
Gusts 21.0 mph

Today
High -- | Low -- °F
--% Chance of Precip.
Yesterday
High -- | Low -- °F
Precip. -- in
6:19 AM 9:04 PM
Waning Gibbous, 68% visible
Pressure 29.88 in
Visibility 10.0 miles
Clouds Few 11000 ft
Dew Point 54 °F
Humidity 74%
Rainfall 0.05 in
Snow Depth Not available.
UV 0 out of 12
Pollen 6.30 out of 12
Air Quality Not available.
Flu Activity Not available.
METAR KMSO 050953Z AUTO 08004KT 10SM FEW110 17/08 A2995 RMK AO2 LTG DSNT N SLP117 T01670078

More Conditions Fewer Conditions

Pressure 29.88 in
Visibility 10.0 miles
Clouds Few 11000 ft
Dew Point 54 °F
Humidity 74%
Rainfall 0.05 in
Snow Depth Not available.
UV 0 out of 12
Pollen 6.30 out of 12
Air Quality Not available.
Flu Activity Not available.
METAR KMSO 050953Z AUTO 08004KT 10SM FEW110 17/08 A2995 RMK AO2 LTG DSNT N SLP117 T01670078

More Conditions Fewer Conditions

10-Day Weather Forecast

×

Almanac

Astronomy

Aug. 05, 2015 Rise Set
Actual Time
Civil Twilight
Nautical Twilight
Astronomical Twilight
Moon
Length of Visible Light
Length of Day
Tomorrow will be .
, % of the Moon is Illuminated

Today's Extremes

State Highs State Lows

Community

WunderPhotos

Upload Photos

1,844,115 photos uploaded!

WunderBlogs® & News

Nearby

Air Quality

  Air Quality AQ Index Pollutant
Not available.

Snow Depth

Station Depth Elevation

Earthquake Activity

City Distance Mag. Time & Date
Minimum magnitude displayed is 2.5.

Coastal Water Temperatures

Place Temperature

Stations

Nearby Weather Stations

Station Location Temp. Windchill Dew Point Humidity Wind Precip. Elev Updated Type